Terminal Aerodrome Forecast
Issued by NWS

Home | Current Version | Previous Version | Text Only | Print | Product List | Glossary On
Versions: 1 2 3 4 5 6 7 8 9 10 11 12 13 14 15 16 17 18
000
FTAK31 PANC 241139
TAFACD
TAF
PACD 241139Z 2412/2512 21014KT P6SM VCSH OVC050
     FM241300 19022G30KT P6SM VCSH BKN050
     FM241500 18025G38KT P6SM -SHRA BKN035 OVC050
     FM242000 19033G45KT P6SM -SHRA BKN040=

USA.gov is the U.S. government's official web portal to all federal, state and local government web resources and services.